sensor_id;sensor_type;location;lat;lon;timestamp;P1;durP1;ratioP1;P2;durP2;ratioP2
36441;SDS011;64346;50.820;16.274;2023-04-20T00:00:06;31.75;;;21.20;;
36441;SDS011;64346;50.820;16.274;2023-04-20T00:02:54;30.58;;;20.00;;
36441;SDS011;64346;50.820;16.274;2023-04-20T00:05:21;30.48;;;19.08;;
36441;SDS011;64346;50.820;16.274;2023-04-20T00:07:49;32.95;;;19.65;;
36441;SDS011;64346;50.820;16.274;2023-04-20T00:10:16;30.02;;;19.23;;
36441;SDS011;64346;50.820;16.274;2023-04-20T00:12:43;32.97;;;20.30;;
36441;SDS011;64346;50.820;16.274;2023-04-20T00:15:10;29.73;;;19.60;;
36441;SDS011;64346;50.820;16.274;2023-04-20T00:17:37;34.58;;;20.63;;
36441;SDS011;64346;50.820;16.274;2023-04-20T00:20:07;31.83;;;20.15;;
36441;SDS011;64346;50.820;16.274;2023-04-20T00:22:37;30.35;;;20.48;;
36441;SDS011;64346;50.820;16.274;2023-04-20T00:25:04;35.22;;;20.98;;
36441;SDS011;64346;50.820;16.274;2023-04-20T00:27:37;31.38;;;20.10;;
36441;SDS011;64346;50.820;16.274;2023-04-20T00:30:04;31.08;;;19.65;;
36441;SDS011;64346;50.820;16.274;2023-04-20T00:32:33;32.63;;;20.63;;
36441;SDS011;64346;50.820;16.274;2023-04-20T00:35:00;32.75;;;22.00;;
36441;SDS011;64346;50.820;16.274;2023-04-20T00:37:27;33.25;;;20.73;;
36441;SDS011;64346;50.820;16.274;2023-04-20T00:39:57;31.45;;;21.20;;
36441;SDS011;64346;50.820;16.274;2023-04-20T00:42:24;36.55;;;22.67;;
36441;SDS011;64346;50.820;16.274;2023-04-20T00:44:51;33.08;;;20.73;;
36441;SDS011;64346;50.820;16.274;2023-04-20T00:47:18;39.13;;;22.77;;
36441;SDS011;64346;50.820;16.274;2023-04-20T00:49:48;34.70;;;22.15;;
36441;SDS011;64346;50.820;16.274;2023-04-20T00:52:18;36.30;;;22.63;;
36441;SDS011;64346;50.820;16.274;2023-04-20T00:54:47;35.28;;;21.58;;
36441;SDS011;64346;50.820;16.274;2023-04-20T00:57:14;35.63;;;21.33;;
36441;SDS011;64346;50.820;16.274;2023-04-20T00:59:45;33.60;;;21.88;;
36441;SDS011;64346;50.820;16.274;2023-04-20T01:02:12;33.70;;;21.15;;
36441;SDS011;64346;50.820;16.274;2023-04-20T01:04:40;34.95;;;21.70;;
36441;SDS011;64346;50.820;16.274;2023-04-20T01:07:07;34.70;;;21.08;;
36441;SDS011;64346;50.820;16.274;2023-04-20T01:09:37;33.03;;;20.35;;
36441;SDS011;64346;50.820;16.274;2023-04-20T01:12:05;33.25;;;20.60;;
36441;SDS011;64346;50.820;16.274;2023-04-20T01:14:35;32.30;;;20.00;;
36441;SDS011;64346;50.820;16.274;2023-04-20T01:17:02;33.30;;;19.50;;
36441;SDS011;64346;50.820;16.274;2023-04-20T01:19:32;29.30;;;19.08;;
36441;SDS011;64346;50.820;16.274;2023-04-20T01:21:59;36.30;;;21.63;;
36441;SDS011;64346;50.820;16.274;2023-04-20T01:24:26;32.00;;;20.67;;
36441;SDS011;64346;50.820;16.274;2023-04-20T01:26:53;33.40;;;20.73;;
36441;SDS011;64346;50.820;16.274;2023-04-20T01:29:21;33.65;;;20.40;;
36441;SDS011;64346;50.820;16.274;2023-04-20T01:31:48;40.05;;;22.00;;
36441;SDS011;64346;50.820;16.274;2023-04-20T01:34:20;32.22;;;19.75;;
36441;SDS011;64346;50.820;16.274;2023-04-20T01:36:49;29.13;;;18.88;;
36441;SDS011;64346;50.820;16.274;2023-04-20T01:39:19;30.17;;;19.67;;
36441;SDS011;64346;50.820;16.274;2023-04-20T01:41:46;31.02;;;19.67;;
36441;SDS011;64346;50.820;16.274;2023-04-20T01:44:14;28.38;;;19.30;;
36441;SDS011;64346;50.820;16.274;2023-04-20T01:46:43;28.15;;;18.80;;
36441;SDS011;64346;50.820;16.274;2023-04-20T01:49:10;33.53;;;20.17;;
36441;SDS011;64346;50.820;16.274;2023-04-20T01:51:40;31.20;;;19.88;;
36441;SDS011;64346;50.820;16.274;2023-04-20T01:54:10;31.02;;;19.20;;
36441;SDS011;64346;50.820;16.274;2023-04-20T01:56:39;31.60;;;18.27;;
36441;SDS011;64346;50.820;16.274;2023-04-20T01:59:07;30.95;;;19.67;;
36441;SDS011;64346;50.820;16.274;2023-04-20T02:01:34;31.02;;;19.75;;
36441;SDS011;64346;50.820;16.274;2023-04-20T02:04:01;29.30;;;19.20;;
36441;SDS011;64346;50.820;16.274;2023-04-20T02:06:31;29.70;;;18.70;;
36441;SDS011;64346;50.820;16.274;2023-04-20T02:08:58;31.65;;;19.83;;
36441;SDS011;64346;50.820;16.274;2023-04-20T02:11:26;31.92;;;20.05;;
36441;SDS011;64346;50.820;16.274;2023-04-20T02:13:54;33.65;;;20.33;;
36441;SDS011;64346;50.820;16.274;2023-04-20T02:16:21;33.55;;;20.77;;
36441;SDS011;64346;50.820;16.274;2023-04-20T02:18:49;34.35;;;20.38;;
36441;SDS011;64346;50.820;16.274;2023-04-20T02:21:16;33.75;;;22.05;;
36441;SDS011;64346;50.820;16.274;2023-04-20T02:23:47;30.30;;;20.75;;
36441;SDS011;64346;50.820;16.274;2023-04-20T02:26:16;31.77;;;19.73;;
36441;SDS011;64346;50.820;16.274;2023-04-20T02:28:43;33.42;;;20.73;;
36441;SDS011;64346;50.820;16.274;2023-04-20T02:31:13;31.38;;;19.60;;
36441;SDS011;64346;50.820;16.274;2023-04-20T02:33:40;34.88;;;20.25;;
36441;SDS011;64346;50.820;16.274;2023-04-20T02:36:07;31.88;;;20.02;;
36441;SDS011;64346;50.820;16.274;2023-04-20T02:38:35;30.20;;;19.85;;
36441;SDS011;64346;50.820;16.274;2023-04-20T02:41:02;32.58;;;21.13;;
36441;SDS011;64346;50.820;16.274;2023-04-20T02:43:31;30.65;;;19.67;;
36441;SDS011;64346;50.820;16.274;2023-04-20T02:45:58;33.72;;;20.35;;
36441;SDS011;64346;50.820;16.274;2023-04-20T02:48:26;30.27;;;20.48;;
36441;SDS011;64346;50.820;16.274;2023-04-20T02:50:56;29.88;;;19.42;;
36441;SDS011;64346;50.820;16.274;2023-04-20T02:53:23;31.85;;;19.10;;
36441;SDS011;64346;50.820;16.274;2023-04-20T02:55:50;30.25;;;19.10;;
36441;SDS011;64346;50.820;16.274;2023-04-20T02:58:17;31.75;;;19.52;;
36441;SDS011;64346;50.820;16.274;2023-04-20T03:03:22;30.33;;;19.88;;
36441;SDS011;64346;50.820;16.274;2023-04-20T03:05:52;32.53;;;19.95;;
36441;SDS011;64346;50.820;16.274;2023-04-20T03:08:22;30.00;;;19.35;;
36441;SDS011;64346;50.820;16.274;2023-04-20T03:10:51;30.63;;;20.42;;
36441;SDS011;64346;50.820;16.274;2023-04-20T03:13:18;33.75;;;21.80;;
36441;SDS011;64346;50.820;16.274;2023-04-20T03:15:48;32.50;;;21.40;;
36441;SDS011;64346;50.820;16.274;2023-04-20T03:18:18;30.65;;;20.13;;
36441;SDS011;64346;50.820;16.274;2023-04-20T03:20:46;28.73;;;19.05;;
36441;SDS011;64346;50.820;16.274;2023-04-20T03:23:13;31.73;;;20.02;;
36441;SDS011;64346;50.820;16.274;2023-04-20T03:25:42;27.52;;;19.45;;
36441;SDS011;64346;50.820;16.274;2023-04-20T03:28:12;26.08;;;17.42;;
36441;SDS011;64346;50.820;16.274;2023-04-20T03:30:43;27.88;;;18.80;;
36441;SDS011;64346;50.820;16.274;2023-04-20T03:33:10;29.23;;;19.40;;
36441;SDS011;64346;50.820;16.274;2023-04-20T03:35:37;31.52;;;20.17;;
36441;SDS011;64346;50.820;16.274;2023-04-20T03:38:05;32.20;;;20.52;;
36441;SDS011;64346;50.820;16.274;2023-04-20T03:40:32;29.55;;;19.55;;
36441;SDS011;64346;50.820;16.274;2023-04-20T03:43:01;32.10;;;20.17;;
36441;SDS011;64346;50.820;16.274;2023-04-20T03:45:29;31.40;;;19.55;;
36441;SDS011;64346;50.820;16.274;2023-04-20T03:47:56;29.13;;;19.55;;
36441;SDS011;64346;50.820;16.274;2023-04-20T03:50:23;29.75;;;19.27;;
36441;SDS011;64346;50.820;16.274;2023-04-20T03:52:53;29.55;;;19.50;;
36441;SDS011;64346;50.820;16.274;2023-04-20T03:55:20;31.15;;;19.83;;
36441;SDS011;64346;50.820;16.274;2023-04-20T03:57:48;30.40;;;19.38;;
36441;SDS011;64346;50.820;16.274;2023-04-20T04:00:17;30.77;;;18.70;;
36441;SDS011;64346;50.820;16.274;2023-04-20T04:02:47;30.33;;;18.73;;
36441;SDS011;64346;50.820;16.274;2023-04-20T04:05:15;30.98;;;19.15;;
36441;SDS011;64346;50.820;16.274;2023-04-20T04:07:42;32.97;;;21.63;;
36441;SDS011;64346;50.820;16.274;2023-04-20T04:10:12;32.33;;;21.33;;
36441;SDS011;64346;50.820;16.274;2023-04-20T04:12:39;38.40;;;24.23;;
36441;SDS011;64346;50.820;16.274;2023-04-20T04:15:07;41.63;;;25.45;;
36441;SDS011;64346;50.820;16.274;2023-04-20T04:17:34;45.72;;;27.55;;
36441;SDS011;64346;50.820;16.274;2023-04-20T04:20:04;47.65;;;27.58;;
36441;SDS011;64346;50.820;16.274;2023-04-20T04:22:31;43.95;;;27.45;;
36441;SDS011;64346;50.820;16.274;2023-04-20T04:24:59;49.38;;;28.95;;
36441;SDS011;64346;50.820;16.274;2023-04-20T04:27:26;49.00;;;29.00;;
36441;SDS011;64346;50.820;16.274;2023-04-20T04:29:55;49.28;;;28.02;;
36441;SDS011;64346;50.820;16.274;2023-04-20T04:32:23;45.22;;;26.48;;
36441;SDS011;64346;50.820;16.274;2023-04-20T04:34:50;43.45;;;25.60;;
36441;SDS011;64346;50.820;16.274;2023-04-20T04:37:22;45.15;;;25.92;;
36441;SDS011;64346;50.820;16.274;2023-04-20T04:39:49;42.83;;;25.60;;
36441;SDS011;64346;50.820;16.274;2023-04-20T04:42:16;43.60;;;25.40;;
36441;SDS011;64346;50.820;16.274;2023-04-20T04:44:46;43.30;;;25.58;;
36441;SDS011;64346;50.820;16.274;2023-04-20T04:47:13;42.55;;;26.15;;
36441;SDS011;64346;50.820;16.274;2023-04-20T04:49:42;44.33;;;26.60;;
36441;SDS011;64346;50.820;16.274;2023-04-20T04:52:09;45.70;;;25.77;;
36441;SDS011;64346;50.820;16.274;2023-04-20T04:54:37;40.47;;;25.42;;
36441;SDS011;64346;50.820;16.274;2023-04-20T04:57:04;45.63;;;26.40;;
36441;SDS011;64346;50.820;16.274;2023-04-20T04:59:31;41.33;;;23.25;;
36441;SDS011;64346;50.820;16.274;2023-04-20T05:01:58;42.70;;;24.58;;
36441;SDS011;64346;50.820;16.274;2023-04-20T05:04:26;37.58;;;23.42;;
36441;SDS011;64346;50.820;16.274;2023-04-20T05:06:53;38.25;;;23.67;;
36441;SDS011;64346;50.820;16.274;2023-04-20T05:09:20;37.70;;;23.42;;
36441;SDS011;64346;50.820;16.274;2023-04-20T05:11:47;36.83;;;22.73;;
36441;SDS011;64346;50.820;16.274;2023-04-20T05:14:15;34.72;;;22.67;;
36441;SDS011;64346;50.820;16.274;2023-04-20T05:16:42;37.03;;;21.38;;
36441;SDS011;64346;50.820;16.274;2023-04-20T05:19:13;38.00;;;22.38;;
36441;SDS011;64346;50.820;16.274;2023-04-20T05:21:40;34.30;;;21.55;;
36441;SDS011;64346;50.820;16.274;2023-04-20T05:24:10;36.30;;;22.02;;
36441;SDS011;64346;50.820;16.274;2023-04-20T05:26:37;37.92;;;23.30;;
36441;SDS011;64346;50.820;16.274;2023-04-20T05:29:06;35.55;;;21.88;;
36441;SDS011;64346;50.820;16.274;2023-04-20T05:31:34;40.13;;;24.63;;
36441;SDS011;64346;50.820;16.274;2023-04-20T05:34:01;38.63;;;22.48;;
36441;SDS011;64346;50.820;16.274;2023-04-20T05:36:28;38.17;;;22.15;;
36441;SDS011;64346;50.820;16.274;2023-04-20T05:38:56;38.53;;;23.42;;
36441;SDS011;64346;50.820;16.274;2023-04-20T05:41:23;38.42;;;23.95;;
36441;SDS011;64346;50.820;16.274;2023-04-20T05:43:51;42.83;;;23.02;;
36441;SDS011;64346;50.820;16.274;2023-04-20T05:46:20;36.08;;;22.60;;
36441;SDS011;64346;50.820;16.274;2023-04-20T05:48:57;36.58;;;23.20;;
36441;SDS011;64346;50.820;16.274;2023-04-20T05:51:25;35.35;;;21.42;;
36441;SDS011;64346;50.820;16.274;2023-04-20T05:53:52;34.33;;;21.45;;
36441;SDS011;64346;50.820;16.274;2023-04-20T05:56:19;32.20;;;20.70;;
36441;SDS011;64346;50.820;16.274;2023-04-20T05:58:49;37.63;;;24.70;;
36441;SDS011;64346;50.820;16.274;2023-04-20T06:01:17;42.00;;;26.38;;
36441;SDS011;64346;50.820;16.274;2023-04-20T06:03:46;33.60;;;21.40;;
36441;SDS011;64346;50.820;16.274;2023-04-20T06:06:19;35.85;;;21.52;;
36441;SDS011;64346;50.820;16.274;2023-04-20T06:08:47;33.13;;;21.73;;
36441;SDS011;64346;50.820;16.274;2023-04-20T06:11:16;32.75;;;20.50;;
36441;SDS011;64346;50.820;16.274;2023-04-20T06:13:46;31.98;;;20.52;;
36441;SDS011;64346;50.820;16.274;2023-04-20T06:16:16;31.75;;;19.45;;
36441;SDS011;64346;50.820;16.274;2023-04-20T06:18:44;30.40;;;19.10;;
36441;SDS011;64346;50.820;16.274;2023-04-20T06:21:13;31.33;;;19.98;;
36441;SDS011;64346;50.820;16.274;2023-04-20T06:23:41;33.13;;;19.65;;
36441;SDS011;64346;50.820;16.274;2023-04-20T06:26:10;30.75;;;19.25;;
36441;SDS011;64346;50.820;16.274;2023-04-20T06:28:37;30.02;;;18.45;;
36441;SDS011;64346;50.820;16.274;2023-04-20T06:31:07;30.88;;;19.27;;
36441;SDS011;64346;50.820;16.274;2023-04-20T06:33:43;29.50;;;18.98;;
36441;SDS011;64346;50.820;16.274;2023-04-20T06:36:13;31.92;;;18.88;;
36441;SDS011;64346;50.820;16.274;2023-04-20T06:38:43;30.48;;;19.10;;
36441;SDS011;64346;50.820;16.274;2023-04-20T06:41:10;29.13;;;18.20;;
36441;SDS011;64346;50.820;16.274;2023-04-20T06:43:40;29.55;;;18.73;;
36441;SDS011;64346;50.820;16.274;2023-04-20T06:46:07;31.02;;;19.08;;
36441;SDS011;64346;50.820;16.274;2023-04-20T06:48:37;27.95;;;17.35;;
36441;SDS011;64346;50.820;16.274;2023-04-20T06:51:04;27.98;;;17.98;;
36441;SDS011;64346;50.820;16.274;2023-04-20T06:53:32;26.40;;;17.27;;
36441;SDS011;64346;50.820;16.274;2023-04-20T06:56:01;29.65;;;20.02;;
36441;SDS011;64346;50.820;16.274;2023-04-20T06:58:29;28.77;;;18.00;;
36441;SDS011;64346;50.820;16.274;2023-04-20T07:00:56;31.20;;;18.38;;
36441;SDS011;64346;50.820;16.274;2023-04-20T07:03:23;30.95;;;17.83;;
36441;SDS011;64346;50.820;16.274;2023-04-20T07:05:51;26.85;;;16.65;;
36441;SDS011;64346;50.820;16.274;2023-04-20T07:08:20;27.98;;;17.40;;
36441;SDS011;64346;50.820;16.274;2023-04-20T07:10:47;26.88;;;16.65;;
36441;SDS011;64346;50.820;16.274;2023-04-20T07:13:15;27.50;;;17.23;;
36441;SDS011;64346;50.820;16.274;2023-04-20T07:15:44;29.98;;;17.00;;
36441;SDS011;64346;50.820;16.274;2023-04-20T07:18:12;26.30;;;17.95;;
36441;SDS011;64346;50.820;16.274;2023-04-20T07:20:39;27.60;;;16.95;;
36441;SDS011;64346;50.820;16.274;2023-04-20T07:23:06;28.17;;;16.90;;
36441;SDS011;64346;50.820;16.274;2023-04-20T07:25:34;26.60;;;17.80;;
36441;SDS011;64346;50.820;16.274;2023-04-20T07:28:01;30.25;;;18.33;;
36441;SDS011;64346;50.820;16.274;2023-04-20T07:30:28;30.65;;;19.15;;
36441;SDS011;64346;50.820;16.274;2023-04-20T07:32:55;31.40;;;18.27;;
36441;SDS011;64346;50.820;16.274;2023-04-20T07:35:25;32.60;;;18.52;;
36441;SDS011;64346;50.820;16.274;2023-04-20T07:37:57;29.75;;;17.95;;
36441;SDS011;64346;50.820;16.274;2023-04-20T07:40:24;28.83;;;17.55;;
36441;SDS011;64346;50.820;16.274;2023-04-20T07:42:51;32.95;;;19.63;;
36441;SDS011;64346;50.820;16.274;2023-04-20T07:45:21;29.48;;;18.73;;
36441;SDS011;64346;50.820;16.274;2023-04-20T07:47:48;35.88;;;22.73;;
36441;SDS011;64346;50.820;16.274;2023-04-20T07:50:15;33.13;;;20.25;;
36441;SDS011;64346;50.820;16.274;2023-04-20T07:52:43;35.33;;;20.25;;
36441;SDS011;64346;50.820;16.274;2023-04-20T07:55:12;32.63;;;20.33;;
36441;SDS011;64346;50.820;16.274;2023-04-20T07:57:40;31.30;;;19.48;;
36441;SDS011;64346;50.820;16.274;2023-04-20T08:00:07;29.70;;;19.33;;
36441;SDS011;64346;50.820;16.274;2023-04-20T08:02:35;33.65;;;20.10;;
36441;SDS011;64346;50.820;16.274;2023-04-20T08:05:02;32.25;;;19.63;;
36441;SDS011;64346;50.820;16.274;2023-04-20T08:07:31;28.33;;;17.20;;
36441;SDS011;64346;50.820;16.274;2023-04-20T08:09:58;29.90;;;17.73;;
36441;SDS011;64346;50.820;16.274;2023-04-20T08:12:25;27.75;;;18.15;;
36441;SDS011;64346;50.820;16.274;2023-04-20T08:14:52;28.67;;;17.73;;
36441;SDS011;64346;50.820;16.274;2023-04-20T08:17:22;26.63;;;17.92;;
36441;SDS011;64346;50.820;16.274;2023-04-20T08:19:49;30.08;;;18.48;;
36441;SDS011;64346;50.820;16.274;2023-04-20T08:22:17;29.90;;;19.60;;
36441;SDS011;64346;50.820;16.274;2023-04-20T08:24:44;30.50;;;18.27;;
36441;SDS011;64346;50.820;16.274;2023-04-20T08:27:12;30.88;;;18.65;;
36441;SDS011;64346;50.820;16.274;2023-04-20T08:29:41;29.92;;;17.70;;
36441;SDS011;64346;50.820;16.274;2023-04-20T08:32:09;31.40;;;19.90;;
36441;SDS011;64346;50.820;16.274;2023-04-20T08:34:36;32.95;;;20.45;;
36441;SDS011;64346;50.820;16.274;2023-04-20T08:37:04;36.05;;;20.40;;
36441;SDS011;64346;50.820;16.274;2023-04-20T08:39:31;35.22;;;21.52;;
36441;SDS011;64346;50.820;16.274;2023-04-20T08:42:01;44.10;;;23.27;;
36441;SDS011;64346;50.820;16.274;2023-04-20T08:44:28;39.45;;;24.30;;
36441;SDS011;64346;50.820;16.274;2023-04-20T08:46:56;38.35;;;23.10;;
36441;SDS011;64346;50.820;16.274;2023-04-20T08:49:23;40.60;;;22.75;;
36441;SDS011;64346;50.820;16.274;2023-04-20T08:51:54;43.88;;;24.05;;
36441;SDS011;64346;50.820;16.274;2023-04-20T08:54:21;39.95;;;22.48;;
36441;SDS011;64346;50.820;16.274;2023-04-20T08:56:50;40.13;;;23.58;;
36441;SDS011;64346;50.820;16.274;2023-04-20T08:59:20;39.47;;;23.10;;
36441;SDS011;64346;50.820;16.274;2023-04-20T09:01:47;35.17;;;21.55;;
36441;SDS011;64346;50.820;16.274;2023-04-20T09:04:24;35.38;;;21.27;;
36441;SDS011;64346;50.820;16.274;2023-04-20T09:06:55;39.30;;;22.60;;
36441;SDS011;64346;50.820;16.274;2023-04-20T09:09:23;35.10;;;22.02;;
36441;SDS011;64346;50.820;16.274;2023-04-20T09:12:04;43.53;;;25.08;;
36441;SDS011;64346;50.820;16.274;2023-04-20T09:14:43;40.60;;;22.75;;
36441;SDS011;64346;50.820;16.274;2023-04-20T09:17:12;39.33;;;23.15;;
36441;SDS011;64346;50.820;16.274;2023-04-20T09:19:42;40.53;;;22.75;;
36441;SDS011;64346;50.820;16.274;2023-04-20T09:22:10;43.78;;;23.30;;
36441;SDS011;64346;50.820;16.274;2023-04-20T09:24:38;40.25;;;23.10;;
36441;SDS011;64346;50.820;16.274;2023-04-20T09:27:18;39.30;;;22.90;;
36441;SDS011;64346;50.820;16.274;2023-04-20T09:29:57;39.38;;;22.42;;
36441;SDS011;64346;50.820;16.274;2023-04-20T09:32:25;41.78;;;23.40;;
36441;SDS011;64346;50.820;16.274;2023-04-20T09:34:52;39.38;;;21.70;;
36441;SDS011;64346;50.820;16.274;2023-04-20T09:37:23;40.60;;;21.95;;
36441;SDS011;64346;50.820;16.274;2023-04-20T09:39:50;40.45;;;22.48;;
36441;SDS011;64346;50.820;16.274;2023-04-20T09:42:19;40.40;;;22.63;;
36441;SDS011;64346;50.820;16.274;2023-04-20T09:44:49;37.83;;;21.63;;
36441;SDS011;64346;50.820;16.274;2023-04-20T09:47:20;36.42;;;21.92;;
36441;SDS011;64346;50.820;16.274;2023-04-20T09:49:48;35.95;;;20.75;;
36441;SDS011;64346;50.820;16.274;2023-04-20T09:52:16;35.85;;;20.40;;
36441;SDS011;64346;50.820;16.274;2023-04-20T09:54:45;34.20;;;19.80;;
36441;SDS011;64346;50.820;16.274;2023-04-20T09:57:15;30.50;;;17.95;;
36441;SDS011;64346;50.820;16.274;2023-04-20T09:59:44;31.23;;;18.17;;
36441;SDS011;64346;50.820;16.274;2023-04-20T10:02:12;29.38;;;16.85;;
36441;SDS011;64346;50.820;16.274;2023-04-20T10:07:26;29.98;;;18.45;;
36441;SDS011;64346;50.820;16.274;2023-04-20T10:10:08;34.20;;;19.33;;
36441;SDS011;64346;50.820;16.274;2023-04-20T10:12:48;32.08;;;17.00;;
36441;SDS011;64346;50.820;16.274;2023-04-20T10:15:20;28.55;;;17.05;;
36441;SDS011;64346;50.820;16.274;2023-04-20T10:17:49;27.00;;;16.08;;
36441;SDS011;64346;50.820;16.274;2023-04-20T10:20:17;27.23;;;15.25;;
36441;SDS011;64346;50.820;16.274;2023-04-20T10:23:05;27.53;;;15.27;;
36441;SDS011;64346;50.820;16.274;2023-04-20T10:25:33;26.90;;;15.00;;
36441;SDS011;64346;50.820;16.274;2023-04-20T10:28:02;23.65;;;14.68;;
36441;SDS011;64346;50.820;16.274;2023-04-20T10:30:35;28.05;;;15.68;;
36441;SDS011;64346;50.820;16.274;2023-04-20T10:33:07;27.17;;;17.15;;
36441;SDS011;64346;50.820;16.274;2023-04-20T10:38:12;27.25;;;16.63;;
36441;SDS011;64346;50.820;16.274;2023-04-20T10:40:39;32.35;;;17.30;;
36441;SDS011;64346;50.820;16.274;2023-04-20T10:43:17;33.55;;;17.35;;
36441;SDS011;64346;50.820;16.274;2023-04-20T10:45:44;30.52;;;16.55;;
36441;SDS011;64346;50.820;16.274;2023-04-20T10:48:14;29.90;;;17.60;;
36441;SDS011;64346;50.820;16.274;2023-04-20T10:50:43;30.15;;;17.05;;
36441;SDS011;64346;50.820;16.274;2023-04-20T10:53:22;26.08;;;15.07;;
36441;SDS011;64346;50.820;16.274;2023-04-20T10:56:08;29.40;;;17.33;;
36441;SDS011;64346;50.820;16.274;2023-04-20T10:58:35;27.83;;;17.63;;
36441;SDS011;64346;50.820;16.274;2023-04-20T11:01:03;29.27;;;17.63;;
36441;SDS011;64346;50.820;16.274;2023-04-20T11:03:31;26.88;;;17.38;;
36441;SDS011;64346;50.820;16.274;2023-04-20T11:05:59;28.48;;;18.33;;
36441;SDS011;64346;50.820;16.274;2023-04-20T11:08:37;30.38;;;18.50;;
36441;SDS011;64346;50.820;16.274;2023-04-20T11:11:16;25.17;;;16.38;;
36441;SDS011;64346;50.820;16.274;2023-04-20T11:13:49;26.02;;;15.65;;
36441;SDS011;64346;50.820;16.274;2023-04-20T11:16:30;30.23;;;17.67;;
36441;SDS011;64346;50.820;16.274;2023-04-20T11:19:20;24.58;;;15.65;;
36441;SDS011;64346;50.820;16.274;2023-04-20T11:21:49;26.95;;;15.98;;
36441;SDS011;64346;50.820;16.274;2023-04-20T11:24:19;24.45;;;15.23;;
36441;SDS011;64346;50.820;16.274;2023-04-20T11:26:49;26.42;;;15.10;;
36441;SDS011;64346;50.820;16.274;2023-04-20T11:29:30;28.00;;;16.45;;
36441;SDS011;64346;50.820;16.274;2023-04-20T11:32:06;28.80;;;17.75;;
36441;SDS011;64346;50.820;16.274;2023-04-20T11:34:36;26.23;;;16.40;;
36441;SDS011;64346;50.820;16.274;2023-04-20T11:37:07;26.80;;;15.85;;
36441;SDS011;64346;50.820;16.274;2023-04-20T11:39:36;26.92;;;14.75;;
36441;SDS011;64346;50.820;16.274;2023-04-20T11:42:06;25.25;;;15.00;;
36441;SDS011;64346;50.820;16.274;2023-04-20T11:44:33;30.20;;;17.63;;
36441;SDS011;64346;50.820;16.274;2023-04-20T11:47:02;28.95;;;17.70;;
36441;SDS011;64346;50.820;16.274;2023-04-20T11:49:30;25.75;;;17.08;;
36441;SDS011;64346;50.820;16.274;2023-04-20T11:52:00;32.15;;;18.85;;
36441;SDS011;64346;50.820;16.274;2023-04-20T11:54:30;31.65;;;18.50;;
36441;SDS011;64346;50.820;16.274;2023-04-20T11:56:57;33.63;;;19.40;;
36441;SDS011;64346;50.820;16.274;2023-04-20T11:59:27;33.65;;;19.67;;
36441;SDS011;64346;50.820;16.274;2023-04-20T12:01:56;29.38;;;17.95;;
36441;SDS011;64346;50.820;16.274;2023-04-20T12:04:23;29.77;;;18.23;;
36441;SDS011;64346;50.820;16.274;2023-04-20T12:06:51;30.50;;;17.77;;
36441;SDS011;64346;50.820;16.274;2023-04-20T12:09:18;29.20;;;18.13;;
36441;SDS011;64346;50.820;16.274;2023-04-20T12:11:46;30.85;;;16.48;;
36441;SDS011;64346;50.820;16.274;2023-04-20T12:14:13;29.40;;;17.70;;
36441;SDS011;64346;50.820;16.274;2023-04-20T12:16:40;28.35;;;16.73;;
36441;SDS011;64346;50.820;16.274;2023-04-20T12:19:13;28.45;;;16.77;;
36441;SDS011;64346;50.820;16.274;2023-04-20T12:21:40;34.03;;;16.80;;
36441;SDS011;64346;50.820;16.274;2023-04-20T12:24:07;28.30;;;16.63;;
36441;SDS011;64346;50.820;16.274;2023-04-20T12:26:34;26.70;;;16.77;;
36441;SDS011;64346;50.820;16.274;2023-04-20T12:29:04;29.70;;;17.80;;
36441;SDS011;64346;50.820;16.274;2023-04-20T12:31:31;28.65;;;18.02;;
36441;SDS011;64346;50.820;16.274;2023-04-20T12:33:59;27.50;;;16.98;;
36441;SDS011;64346;50.820;16.274;2023-04-20T12:36:26;29.17;;;19.02;;
36441;SDS011;64346;50.820;16.274;2023-04-20T12:38:53;29.02;;;17.83;;
36441;SDS011;64346;50.820;16.274;2023-04-20T12:41:26;32.33;;;18.30;;
36441;SDS011;64346;50.820;16.274;2023-04-20T12:43:53;30.88;;;19.55;;
36441;SDS011;64346;50.820;16.274;2023-04-20T12:46:22;31.90;;;19.55;;
36441;SDS011;64346;50.820;16.274;2023-04-20T12:48:54;34.03;;;19.38;;
36441;SDS011;64346;50.820;16.274;2023-04-20T12:51:21;31.05;;;18.95;;
36441;SDS011;64346;50.820;16.274;2023-04-20T12:53:51;30.15;;;18.40;;
36441;SDS011;64346;50.820;16.274;2023-04-20T12:56:18;29.60;;;19.42;;
36441;SDS011;64346;50.820;16.274;2023-04-20T12:58:45;28.02;;;19.05;;
36441;SDS011;64346;50.820;16.274;2023-04-20T13:01:15;29.13;;;18.95;;
36441;SDS011;64346;50.820;16.274;2023-04-20T13:03:42;30.65;;;18.40;;
36441;SDS011;64346;50.820;16.274;2023-04-20T13:06:10;29.65;;;18.52;;
36441;SDS011;64346;50.820;16.274;2023-04-20T13:08:40;34.30;;;20.20;;
36441;SDS011;64346;50.820;16.274;2023-04-20T13:11:09;29.83;;;18.63;;
36441;SDS011;64346;50.820;16.274;2023-04-20T13:13:37;35.15;;;20.67;;
36441;SDS011;64346;50.820;16.274;2023-04-20T13:16:04;32.80;;;20.63;;
36441;SDS011;64346;50.820;16.274;2023-04-20T13:18:32;32.20;;;20.33;;
36441;SDS011;64346;50.820;16.274;2023-04-20T13:20:59;31.65;;;20.20;;
36441;SDS011;64346;50.820;16.274;2023-04-20T13:23:29;31.88;;;20.17;;
36441;SDS011;64346;50.820;16.274;2023-04-20T13:25:56;35.72;;;21.55;;
36441;SDS011;64346;50.820;16.274;2023-04-20T13:28:24;30.23;;;19.75;;
36441;SDS011;64346;50.820;16.274;2023-04-20T13:30:52;32.10;;;20.00;;
36441;SDS011;64346;50.820;16.274;2023-04-20T13:33:19;31.20;;;20.23;;
36441;SDS011;64346;50.820;16.274;2023-04-20T13:35:47;35.25;;;20.48;;
36441;SDS011;64346;50.820;16.274;2023-04-20T13:38:14;31.05;;;19.55;;
36441;SDS011;64346;50.820;16.274;2023-04-20T13:40:46;31.02;;;18.70;;
36441;SDS011;64346;50.820;16.274;2023-04-20T13:43:14;31.23;;;20.80;;
36441;SDS011;64346;50.820;16.274;2023-04-20T13:45:41;32.70;;;19.45;;
36441;SDS011;64346;50.820;16.274;2023-04-20T13:48:09;35.58;;;20.48;;
36441;SDS011;64346;50.820;16.274;2023-04-20T13:50:38;30.50;;;20.10;;
36441;SDS011;64346;50.820;16.274;2023-04-20T13:53:08;38.03;;;21.63;;
36441;SDS011;64346;50.820;16.274;2023-04-20T13:55:38;31.67;;;19.42;;
36441;SDS011;64346;50.820;16.274;2023-04-20T13:58:05;34.80;;;20.80;;
36441;SDS011;64346;50.820;16.274;2023-04-20T14:00:32;31.38;;;20.55;;
36441;SDS011;64346;50.820;16.274;2023-04-20T14:03:02;33.35;;;20.27;;
36441;SDS011;64346;50.820;16.274;2023-04-20T14:05:30;31.27;;;19.60;;
36441;SDS011;64346;50.820;16.274;2023-04-20T14:07:59;31.77;;;19.98;;
36441;SDS011;64346;50.820;16.274;2023-04-20T14:10:27;29.10;;;18.60;;
36441;SDS011;64346;50.820;16.274;2023-04-20T14:12:55;29.90;;;19.70;;
36441;SDS011;64346;50.820;16.274;2023-04-20T14:15:22;28.92;;;18.58;;
36441;SDS011;64346;50.820;16.274;2023-04-20T14:17:50;31.08;;;20.75;;
36441;SDS011;64346;50.820;16.274;2023-04-20T14:20:18;30.17;;;19.73;;
36441;SDS011;64346;50.820;16.274;2023-04-20T14:22:45;32.53;;;20.20;;
36441;SDS011;64346;50.820;16.274;2023-04-20T14:25:15;32.70;;;18.85;;